Terminal Aerodrome Forecast
Issued by NWS Louisville, KY

Home | Current Version | Previous Version | Text Only | Print | Product List | Glossary On
Versions: 1 2 3 4 5 6 7 8 9 10 11 12 13 14 15
000
FTUS43 KLMK 271600 AAA
TAFSDF
TAF AMD
KSDF 271600Z 2716/2818 16006KT P6SM SCT040
     FM271630 VRB08G17KT P6SM VCSH BKN040
     FM271730 32006KT P6SM SCT040 SCT150
     FM280000 21003KT P6SM SCT250
     FM281500 VRB04KT P6SM SCT040=

USA.gov is the U.S. government's official web portal to all federal, state and local government web resources and services.